Almyra, Arkansas
Current Conditions -  °F | °C
As of 12:55 AM on Thursday 23 Oct 2014 (Local Time) from KSGT Reporting Station
Clear Clear  
Wind Chill:   Ceiling: Unl
Heat Index:   Visibility: 7mi
Dew Point:   Wind: 7mph
Humidity: 81%   Direction: 10°N
Pressure: 30.19"   Gusts: NA
Location:  34.41°N, 91.41°W
Report Text: KSGT 230555Z AUTO 01006KT 7SM CLR 08/05 A3019 RMK AO1 10140 20080 57003
Loading
Personal Weather Stations






























Interactive Weather Map
Tropical Storm Tracking
New forecast layout! Learn more

10-Day Weather Forecast

Advertisements
Track Severe Weather on mobile